Strain, Missouri
Current Conditions -  °F | °C
As of 10:55 AM on Saturday 22 Nov 2014 (Local Time) from KFYG Reporting Station
Overcast Overcast  
Wind Chill: 57°   Ceiling: 2900
Heat Index: 57°   Visibility: 10mi
Dew Point: 46°   Wind: 14mph
Humidity: 67%   Direction: 200°SSW
Pressure: 30.05"   Gusts: 20mph
Location:  38.2643°N, 91.1348°W
Report Text: KFYG 221655Z AUTO 20012G17KT 10SM OVC029 14/08 A3005 RMK AO2
Loading
Personal Weather Stations






























Interactive Weather Map New forecast layout! Learn more

10-Day Weather Forecast

Advertisements
Track Severe Weather on mobile